DW0805 Ramloese DK current weather conditions

sailwx.info

Wind from 090 at 3 knots gusting 6

Air temperature 10.6° C
Dewpoint 7.2° C

Last reported at 2015-May-29 17:45 UTC.
Time now 2015-May-29 18:29 UTC

Location: N 56°01' E 012°05'.
View on Google Maps.

See reports from other nearby stations

  
Tides and Currents Weather Stations Pressure Air Temp Water Temp Dewpoint Dewpoint Depression Visibility Wind Speed Wind Dir Waves Ship Positions
date/time (UTC)wind fromknots sea level pressurealtimeterstation pressurevisibilityair tempwater tempwave heightnotes
2015-May-29 17:45 090 3 gusting 6 10.6
2015-May-29 17:35 100 2 gusting 6 10.0
2015-May-29 17:25 290 0 gusting 1 10.6
2015-May-29 17:15 305 1 gusting 2 10.6
2015-May-29 17:05 288 1 gusting 5 10.6
2015-May-29 16:55 257 1 gusting 6 10.0
2015-May-29 16:45 294 7 gusting 14 10.0
2015-May-29 16:35 294 9 gusting 15 10.6
2015-May-29 16:25 246 12 gusting 15 11.7
2015-May-29 16:15 237 10 gusting 13 12.2
2015-May-29 16:05 255 3 gusting 8 12.8
2015-May-29 15:55 261 4 gusting 7 12.8
2015-May-29 15:45 297 4 gusting 11 12.8
2015-May-29 15:35 302 8 gusting 12 12.8
2015-May-29 15:25 320 8 gusting 13 13.9
2015-May-29 15:15 259 6 gusting 13 13.9
2015-May-29 15:05 264 3 gusting 14 13.9
2015-May-29 14:55 242 11 gusting 15 13.9
2015-May-29 14:45 231 9 gusting 14 14.4
2015-May-29 14:35 240 10 gusting 15 14.4
2015-May-29 14:25 243 11 gusting 17 14.4
2015-May-29 14:15 223 8 gusting 14 14.4
2015-May-29 14:05 228 13 gusting 17 13.9
2015-May-29 13:55 222 12 gusting 17 14.4
2015-May-29 13:45 223 13 gusting 17 15.0
2015-May-29 13:35 232 8 gusting 15 15.0
2015-May-29 13:25 220 11 gusting 17 14.4
2015-May-29 13:15 227 10 gusting 13 14.4
2015-May-29 13:05 213 10 gusting 13 15.0
2015-May-29 12:55 247 8 gusting 17 15.0
2015-May-29 12:45 218 13 gusting 18 15.0
2015-May-29 12:35 232 14 gusting 18 14.4
2015-May-29 12:25 227 13 gusting 18 14.4
2015-May-29 12:15 227 8 gusting 13 15.6
2015-May-29 12:05 228 7 gusting 12 16.1
2015-May-29 11:55 236 6 gusting 14 15.0
2015-May-29 11:45 223 8 gusting 11 15.0
2015-May-29 11:35 239 5 gusting 11 15.6
2015-May-29 11:25 255 7 gusting 13 15.0
2015-May-29 11:15 272 8 gusting 15 13.9
2015-May-29 11:05 277 10 gusting 21 13.3
2015-May-29 10:45 246 10 gusting 19 13.3
2015-May-29 10:35 230 11 gusting 17 14.4
2015-May-29 10:25 241 11 gusting 15 14.4
2015-May-29 10:15 242 10 gusting 19 13.9
2015-May-29 10:05 233 10 gusting 19 14.4
2015-May-29 09:55 239 9 gusting 15 14.4
2015-May-29 09:45 248 10 gusting 13 13.9
2015-May-29 09:35 233 8 gusting 15 13.9
2015-May-29 09:15 237 12 gusting 19 13.9
2015-May-29 09:05 235 12 gusting 15 13.9
2015-May-29 08:55 243 13 gusting 17 13.9
2015-May-29 08:45 231 11 gusting 17 13.3
2015-May-29 08:35 235 8 gusting 15 13.3
2015-May-29 08:25 239 10 gusting 18 13.3
2015-May-29 08:15 249 13 gusting 17 13.3
2015-May-29 08:05 240 8 gusting 15 13.3
2015-May-29 07:55 235 12 gusting 18 12.8
2015-May-29 07:45 231 11 gusting 19 12.8
2015-May-29 07:35 248 11 gusting 18 12.2
2015-May-29 07:25 249 10 gusting 15 12.2
2015-May-29 07:15 288 12 gusting 19 11.7
2015-May-29 07:05 217 12 gusting 15 11.1
2015-May-29 06:55 235 9 gusting 15 11.1
2015-May-29 06:45 218 13 gusting 17 11.1
2015-May-29 06:35 243 10 gusting 15 11.1
2015-May-29 06:25 294 8 gusting 15 11.1
2015-May-29 06:15 246 8 gusting 15 11.1
2015-May-29 06:05 241 8 gusting 14 10.6
2015-May-29 05:55 237 8 gusting 13 10.6
2015-May-29 05:45 287 8 gusting 12 10.6
2015-May-29 05:35 255 9 gusting 14 10.0
2015-May-29 05:25 301 11 gusting 15 10.0
2015-May-29 05:15 255 9 gusting 13 10.0
2015-May-29 05:05 243 7 gusting 13 9.4
2015-May-29 04:55 335 6 gusting 13 9.4
2015-May-29 04:45 246 6 gusting 13 8.9
2015-May-29 04:35 251 6 gusting 11 8.9
2015-May-29 04:25 259 6 gusting 11 8.9
2015-May-29 04:15 283 6 gusting 12 8.9
2015-May-29 04:05 262 6 gusting 11 8.3
2015-May-29 03:55 264 5 gusting 10 8.3
2015-May-29 03:45 308 6 gusting 13 8.3
2015-May-29 03:35 252 6 gusting 11 7.8
2015-May-29 03:25 297 6 gusting 11 7.8
2015-May-29 03:15 309 6 gusting 13 7.8
2015-May-29 03:05 267 4 gusting 13 7.8
2015-May-29 02:55 252 4 gusting 8 7.8
2015-May-29 02:45 248 6 gusting 13 7.8
2015-May-29 02:35 248 6 gusting 11 7.8
2015-May-29 02:25 246 6 gusting 13 8.3
2015-May-29 02:15 247 6 gusting 12 7.8
2015-May-29 02:05 229 6 gusting 11 7.8
2015-May-29 01:55 252 7 gusting 10 7.8
2015-May-29 01:45 245 6 gusting 12 7.8
2015-May-29 01:35 247 6 gusting 8 7.8
2015-May-29 01:25 242 5 gusting 8 7.8
2015-May-29 01:15 246 4 gusting 10 7.2
2015-May-29 01:05 251 3 gusting 7 7.2
2015-May-29 00:55 250 4 gusting 6 7.2
2015-May-29 00:45 250 5 gusting 6 7.8
2015-May-29 00:35 252 4 gusting 10 7.8
2015-May-29 00:25 255 4 gusting 7 7.8
2015-May-29 00:15 250 5 gusting 7 8.3
2015-May-29 00:05 249 5 gusting 10 8.3
2015-May-28 23:55 250 5 gusting 8 8.9
2015-May-28 23:45 248 5 gusting 11 8.9
2015-May-28 23:35 266 5 gusting 12 8.9
2015-May-28 23:25 284 6 gusting 11 8.3
2015-May-28 23:15 302 5 gusting 13 8.9
2015-May-28 23:05 278 7 gusting 13 8.9
2015-May-28 22:55 271 7 gusting 13 8.9
2015-May-28 22:45 282 6 gusting 14 9.4
2015-May-28 22:35 267 9 gusting 13 9.4
2015-May-28 22:25 273 6 gusting 13 9.4
2015-May-28 22:15 265 6 gusting 11 10.0
2015-May-28 22:05 245 6 gusting 13 10.0
2015-May-28 21:55 241 5 gusting 11 10.0
2015-May-28 21:45 259 5 gusting 12 10.0
2015-May-28 21:35 273 6 gusting 13 10.0
2015-May-28 21:25 272 8 gusting 15 9.4
2015-May-28 21:15 276 6 gusting 15 10.0
2015-May-28 21:05 291 7 gusting 15 10.0
2015-May-28 20:55 284 6 gusting 14 10.0
2015-May-28 20:45 280 7 gusting 15 10.0
2015-May-28 20:35 286 6 gusting 13 10.0
2015-May-28 20:25 282 8 gusting 13 10.0
2015-May-28 20:15 290 6 gusting 14 10.0
2015-May-28 20:05 269 6 gusting 13 10.0
2015-May-28 19:55 254 6 gusting 12 10.6
2015-May-28 19:45 286 8 gusting 13 10.6
2015-May-28 19:35 290 9 gusting 14 10.6
2015-May-28 19:25 280 7 gusting 14 10.6
2015-May-28 19:15 274 7 gusting 13 10.6
2015-May-28 19:05 282 7 gusting 14 11.1
2015-May-28 18:55 281 5 gusting 13 11.1
2015-May-28 18:45 308 6 gusting 15 11.1
2015-May-28 18:35 264 10 gusting 17 11.1
2015-May-28 18:25 297 6 gusting 15 11.7
2015-May-28 18:15 279 11 gusting 17 11.7
2015-May-28 18:05 257 8 gusting 17 12.2
2015-May-28 17:55 244 8 gusting 15 12.8
2015-May-28 17:45 246 9 gusting 17 13.3
2015-May-28 17:35 250 7 gusting 18 13.3
2015-May-28 17:25 252 12 gusting 15 13.3
2015-May-28 17:15 266 12 gusting 19 12.8
2015-May-28 17:05 263 7 gusting 19 12.8
2015-May-28 16:55 253 10 gusting 19 12.8
2015-May-28 16:45 240 11 gusting 20 13.3
2015-May-28 16:35 242 13 gusting 20 13.3
2015-May-28 16:25 239 11 gusting 22 13.3
2015-May-28 16:15 246 12 gusting 22 13.9
2015-May-28 16:05 244 12 gusting 19 14.4
2015-May-28 15:55 267 10 gusting 17 14.4
2015-May-28 15:45 257 11 gusting 17 13.9
2015-May-28 15:35 259 11 gusting 15 14.4
2015-May-28 15:25 275 11 gusting 15 15.0
2015-May-28 15:15 270 9 gusting 15 15.6
2015-May-28 15:05 303 12 gusting 19 15.6
2015-May-28 14:55 312 8 gusting 19 15.0
2015-May-28 14:45 308 13 gusting 19 13.9
2015-May-28 14:35 274 4 gusting 15 12.8
2015-May-28 14:25 285 8 gusting 17 12.8
2015-May-28 14:15 300 12 gusting 18 12.8
2015-May-28 14:05 291 10 gusting 26 13.3
2015-May-28 13:55 290 26 gusting 26 13.9
2015-May-28 13:45 226 13 gusting 19 14.4
2015-May-28 13:35 236 14 gusting 20 15.0
2015-May-28 13:25 244 10 gusting 17 14.4
2015-May-28 13:15 242 10 gusting 17 14.4
2015-May-28 13:05 239 12 gusting 17 13.9
2015-May-28 12:55 226 13 gusting 17 12.8
2015-May-28 12:45 226 12 gusting 17 12.2
2015-May-28 12:35 254 8 gusting 12 11.7
2015-May-28 12:25 269 7 gusting 15 10.6
2015-May-28 12:15 266 7 gusting 13 10.0
2015-May-28 12:05 256 10 gusting 15 11.1
2015-May-28 11:55 316 18 gusting 22 12.8
2015-May-28 11:45 218 14 gusting 20 13.9
2015-May-28 11:35 231 14 gusting 20 13.9
2015-May-28 11:25 226 13 gusting 24 13.9
2015-May-28 11:15 219 17 gusting 24 13.9
2015-May-28 11:05 215 15 gusting 20 13.9
2015-May-28 10:55 227 15 gusting 26 13.3
2015-May-28 10:45 222 13 gusting 19 13.3
2015-May-28 10:35 211 14 gusting 20 12.8
2015-May-28 10:25 213 13 gusting 19 12.8
2015-May-28 10:15 227 15 gusting 19 12.8
2015-May-28 10:05 209 13 gusting 15 12.8
2015-May-28 09:55 214 5 gusting 15 12.8
2015-May-28 09:45 212 7 gusting 13 12.8
2015-May-28 09:35 200 11 gusting 14 12.8
2015-May-28 09:25 220 12 gusting 17 12.2
2015-May-28 09:15 208 11 gusting 15 12.2
2015-May-28 09:05 213 12 gusting 15 12.8
2015-May-28 08:55 224 12 gusting 19 12.2
2015-May-28 08:45 276 12 gusting 19 12.2
2015-May-28 08:35 214 12 gusting 17 12.8
2015-May-28 08:25 225 12 gusting 18 12.8
2015-May-28 08:15 280 12 gusting 17 12.2
2015-May-28 08:05 227 13 gusting 18 12.2
2015-May-28 07:55 220 13 gusting 19 12.2
2015-May-28 07:45 208 14 gusting 19 12.2
2015-May-28 07:35 215 10 gusting 14 12.2
2015-May-28 07:25 202 8 gusting 15 12.2
2015-May-28 07:15 209 12 gusting 19 12.2
2015-May-28 07:05 207 12 gusting 17 12.2
2015-May-28 06:55 205 10 gusting 14 12.2
2015-May-28 06:45 214 6 gusting 15 12.2
2015-May-28 06:35 221 7 gusting 15 11.7
2015-May-28 06:25 213 6 gusting 12 12.2
2015-May-28 06:15 197 6 gusting 13 11.7
2015-May-28 06:05 189 7 gusting 13 11.7
2015-May-28 05:55 203 7 gusting 15 11.7
2015-May-28 05:45 197 8 gusting 15 11.1
2015-May-28 05:35 189 6 gusting 13 11.1
2015-May-28 05:25 191 7 gusting 15 11.1
2015-May-28 05:15 181 7 gusting 14 10.6
2015-May-28 05:05 180 7 gusting 14 10.6
2015-May-28 04:55 183 5 gusting 10 10.0
2015-May-28 04:45 154 5 gusting 13 10.0
2015-May-28 04:35 185 5 gusting 13 10.0
2015-May-28 04:25 159 5 gusting 12 9.4
2015-May-28 04:15 126 7 gusting 13 9.4
2015-May-28 04:05 156 5 gusting 13 8.9
2015-May-28 03:55 152 5 gusting 8 8.9
2015-May-28 03:45 148 5 gusting 8 8.9
2015-May-28 03:35 158 3 gusting 11 8.3
2015-May-28 03:25 161 4 gusting 8 8.3
2015-May-28 03:15 159 5 gusting 10 8.3
2015-May-28 03:05 149 5 gusting 7 8.3
2015-May-28 02:55 152 5 gusting 10 7.8
2015-May-28 02:45 141 4 gusting 6 7.8
2015-May-28 02:35 145 4 gusting 6 7.2
2015-May-28 02:25 155 1 gusting 5 7.8
2015-May-28 02:15 167 1 gusting 5 8.3
2015-May-28 02:05 177 2 gusting 6 8.3
2015-May-28 01:55 167 4 gusting 7 8.3
2015-May-28 01:45 186 3 gusting 6 7.8
2015-May-28 01:35 212 7.2
2015-May-28 01:25 212 7.8
2015-May-28 01:15 212 1 gusting 5 8.3
2015-May-28 01:05 213 4 gusting 5 8.3
2015-May-28 00:55 212 2 gusting 6 7.8
2015-May-28 00:45 255 0 gusting 4 7.2
2015-May-28 00:35 265 0 gusting 4 6.1
2015-May-28 00:25 292 6.1
2015-May-28 00:15 292 6.1
2015-May-28 00:05 292 6.1
2015-May-27 23:55 292 6.1
2015-May-27 23:45 292 6.1
2015-May-27 23:35 292 6.1
2015-May-27 23:25 292 6.1
2015-May-27 23:15 292 6.7
2015-May-27 23:05 292 0 gusting 2 6.7
2015-May-27 22:55 292 7.2
2015-May-27 22:45 292 7.2
2015-May-27 22:35 292 7.2
2015-May-27 22:25 292 7.8
2015-May-27 22:15 292 7.8
2015-May-27 22:05 292 8.3
2015-May-27 21:55 292 8.9
2015-May-27 21:45 292 8.9
2015-May-27 21:35 292 0 gusting 5 9.4
2015-May-27 21:25 291 1 gusting 5 9.4
2015-May-27 21:15 291 1 gusting 4 10.0
2015-May-27 21:05 292 1 gusting 5 10.0
2015-May-27 20:55 291 2 gusting 5 10.0
2015-May-27 20:45 303 2 gusting 6 10.0
2015-May-27 20:35 288 4 gusting 7 10.6
2015-May-27 20:25 295 2 gusting 7 10.6
2015-May-27 20:15 291 4 gusting 7 10.6
2015-May-27 20:05 285 6 gusting 11 10.6
2015-May-27 19:55 302 3 gusting 7 10.6
2015-May-27 19:45 290 3 gusting 11 11.1
2015-May-27 19:35 295 4 gusting 7 11.1
2015-May-27 19:25 282 4 gusting 8 11.1
2015-May-27 19:15 292 5 gusting 12 11.7
2015-May-27 19:05 317 6 gusting 11 11.7
2015-May-27 18:55 278 6 gusting 15 11.7
2015-May-27 18:45 286 5 gusting 11 11.7
2015-May-27 18:35 278 7 gusting 13 11.7
2015-May-27 18:25 288 5 gusting 11 11.7
2015-May-27 18:15 312 6 gusting 12 12.2
2015-May-27 18:05 276 5 gusting 12 12.2